Time;durP1;ratioP1;P1;durP2;ratioP2;P2;SDS_P1;SDS_P2;PMS_P1;PMS_P2;Temp;Humidity;BMP_temperature;BMP_pressure;BME280_temperature;BME280_humidity;BME280_pressure;Samples;Min_cycle;Max_cycle;Signal;HPM_P1;HPM_P2
2022/08/18 00:02:23;;;;;;;21.50;14.23;;;18.20;99.90;;;;;;5116050;28;20047;-67
2022/08/18 00:04:49;;;;;;;;;;;18.20;99.90;;;;;;5116410;28;20035;-67
2022/08/18 00:07:20;;;;;;;24.65;15.50;;;18.20;99.90;;;;;;5080900;28;19923;-67
2022/08/18 00:09:46;;;;;;;29.23;15.95;;;18.20;99.90;;;;;;5113417;28;20047;-67
2022/08/18 00:12:38;;;;;;;22.85;14.13;;;18.20;99.90;;;;;;5116005;28;20400;-67
2022/08/18 00:15:10;;;;;;;26.52;16.08;;;18.20;99.90;;;;;;5097421;28;20050;-67
2022/08/18 00:17:37;;;;;;;29.63;15.00;;;18.20;99.90;;;;;;5114595;28;20044;-67
2022/08/18 00:20:07;;;;;;;27.33;15.82;;;18.20;99.90;;;;;;5115620;28;20514;-67
2022/08/18 00:22:33;;;;;;;24.90;15.23;;;18.20;99.90;;;;;;5097291;28;20046;-67
2022/08/18 00:24:59;;;;;;;25.70;15.10;;;18.20;99.90;;;;;;5097558;28;20036;-67
2022/08/18 00:27:28;;;;;;;28.25;15.63;;;18.20;99.90;;;;;;5115662;28;20365;-67
2022/08/18 00:29:56;;;;;;;24.20;15.70;;;18.20;99.90;;;;;;5097317;28;20051;-67
2022/08/18 00:32:29;;;;;;;24.48;14.50;;;18.20;99.90;;;;;;5080643;28;20035;-67
2022/08/18 00:34:55;;;;;;;28.38;14.13;;;18.20;99.90;;;;;;5097011;28;20476;-67
2022/08/18 00:37:22;;;;;;;32.58;15.57;;;18.20;99.90;;;;;;5115453;28;20051;-67
2022/08/18 00:39:52;;;;;;;27.15;15.02;;;18.20;99.90;;;;;;5112955;28;20496;-67
2022/08/18 00:42:28;;;;;;;26.73;15.27;;;18.20;99.90;;;;;;5080061;28;20484;-67
2022/08/18 00:44:55;;;;;;;20.88;14.65;;;18.20;99.90;;;;;;5097094;28;20388;-67
2022/08/18 00:47:21;;;;;;;29.42;15.05;;;18.20;99.90;;;;;;5097092;28;20035;-67
2022/08/18 00:49:51;;;;;;;33.30;14.75;;;18.20;99.90;;;;;;5079979;28;20673;-67
2022/08/18 00:52:19;;;;;;;24.10;14.88;;;18.20;99.90;;;;;;5096756;28;20130;-67
2022/08/18 00:54:46;;;;;;;22.17;13.48;;;18.20;99.90;;;;;;5096684;28;20101;-67
2022/08/18 00:57:14;;;;;;;26.05;13.93;;;18.20;99.90;;;;;;5096631;28;20039;-67
2022/08/18 00:59:47;;;;;;;23.67;13.82;;;18.20;99.90;;;;;;5096539;28;20044;-67
2022/08/18 01:02:36;;;;;;;32.53;16.27;;;18.20;99.90;;;;;;5096520;28;20097;-67
2022/08/18 01:05:07;;;;;;;23.95;13.18;;;18.20;99.90;;;;;;5079746;28;20039;-67
2022/08/18 01:07:44;;;;;;;36.47;15.93;;;18.20;99.90;;;;;;5114852;28;20092;-67
2022/08/18 01:10:15;;;;;;;22.67;14.63;;;18.20;99.90;;;;;;5093963;28;20055;-67
2022/08/18 01:12:46;;;;;;;26.20;15.25;;;18.20;99.90;;;;;;5114978;28;20098;-67
2022/08/18 01:15:14;;;;;;;24.85;14.23;;;18.20;99.90;;;;;;5114676;28;20042;-67
2022/08/18 01:23:39;;;;;;;25.58;13.88;;;18.20;99.90;;;;;;5114444;28;20047;-67
2022/08/18 01:26:08;;;;;;;25.50;14.15;;;18.20;99.90;;;;;;5096099;28;20097;-67
2022/08/18 01:28:37;;;;;;;23.77;13.90;;;18.20;99.90;;;;;;5096035;28;20422;-67
2022/08/18 01:31:04;;;;;;;23.25;12.18;;;18.10;99.90;;;;;;5114327;28;20453;-67
2022/08/18 01:33:35;;;;;;;23.05;12.73;;;18.20;99.90;;;;;;5096013;28;20078;-67
2022/08/18 01:36:15;;;;;;;31.42;15.93;;;18.10;99.90;;;;;;5079067;28;20551;-67
2022/08/18 01:38:49;;;;;;;24.17;15.73;;;18.10;99.90;;;;;;5093972;28;20044;-67
2022/08/18 01:41:17;;;;;;;31.65;16.55;;;18.10;99.90;;;;;;5096154;28;20044;-67
2022/08/18 01:43:45;;;;;;;24.20;13.95;;;18.10;99.90;;;;;;5095834;28;20372;-67
2022/08/18 01:46:11;;;;;;;32.53;15.60;;;18.10;99.90;;;;;;5095991;28;20188;-67
2022/08/18 01:48:38;;;;;;;29.05;16.92;;;18.10;99.90;;;;;;5096015;28;20046;-67
2022/08/18 01:51:06;;;;;;;28.65;16.85;;;18.10;99.90;;;;;;5078752;28;20120;-67
2022/08/18 01:53:33;;;;;;;26.33;15.98;;;18.10;99.90;;;;;;5095996;28;20039;-67
2022/08/18 01:55:59;;;;;;;34.45;17.55;;;18.10;99.90;;;;;;5095797;28;20096;-67
2022/08/18 01:58:28;;;;;;;28.58;16.45;;;18.10;99.90;;;;;;5095571;28;20657;-66
2022/08/18 02:01:00;;;;;;;30.20;16.30;;;18.20;99.90;;;;;;5095592;28;20571;-67
2022/08/18 02:03:34;;;;;;;30.27;15.88;;;18.20;99.90;;;;;;5078608;28;20044;-67
2022/08/18 02:06:03;;;;;;;27.60;15.88;;;18.20;99.90;;;;;;5095760;28;20126;-67
2022/08/18 02:08:29;;;;;;;31.10;16.40;;;18.20;99.90;;;;;;5095663;28;20128;-67
2022/08/18 02:10:57;;;;;;;34.10;16.17;;;18.20;99.90;;;;;;5092937;28;20055;-67
2022/08/18 02:13:24;;;;;;;32.90;16.75;;;18.20;99.90;;;;;;5095337;28;20047;-67
2022/08/18 02:15:50;;;;;;;24.42;15.15;;;18.20;99.90;;;;;;5095378;28;20044;-67
2022/08/18 02:18:21;;;;;;;26.73;16.42;;;18.20;99.90;;;;;;5078199;28;20054;-67
2022/08/18 02:20:47;;;;;;;30.05;17.33;;;18.20;99.90;;;;;;5113471;28;20048;-67
2022/08/18 02:23:13;;;;;;;36.97;17.92;;;18.20;99.90;;;;;;5095085;28;20124;-67
2022/08/18 02:25:42;;;;;;;30.60;16.25;;;18.20;99.90;;;;;;5113315;28;20097;-67
2022/08/18 02:28:08;;;;;;;25.65;14.85;;;18.20;99.90;;;;;;5095188;28;20043;-67
2022/08/18 02:30:36;;;;;;;31.83;16.08;;;18.20;99.90;;;;;;5095101;28;20092;-67
2022/08/18 02:33:04;;;;;;;27.17;15.27;;;18.20;99.90;;;;;;5113398;28;20070;-67
2022/08/18 02:35:29;;;;;;;26.98;17.38;;;18.20;99.90;;;;;;5095034;28;20051;-67
2022/08/18 02:37:58;;;;;;;31.45;17.00;;;18.20;99.90;;;;;;5113117;28;20044;-67
2022/08/18 02:40:24;;;;;;;35.80;15.88;;;18.20;99.90;;;;;;5092068;28;20050;-67
2022/08/18 02:42:51;;;;;;;25.92;16.65;;;18.20;99.90;;;;;;5095217;28;20036;-67
2022/08/18 02:45:18;;;;;;;26.73;15.52;;;18.20;99.90;;;;;;5113387;28;20055;-67
2022/08/18 02:47:44;;;;;;;29.02;15.32;;;18.10;99.90;;;;;;5113196;28;20416;-67
2022/08/18 02:50:12;;;;;;;23.73;14.02;;;18.10;99.90;;;;;;5113127;28;20028;-67
2022/08/18 02:52:37;;;;;;;30.25;14.77;;;18.10;99.90;;;;;;5094896;28;20050;-67
2022/08/18 02:55:04;;;;;;;25.15;13.75;;;18.10;99.90;;;;;;5113095;28;20039;-67
2022/08/18 02:57:30;;;;;;;30.40;16.13;;;18.10;99.90;;;;;;5095176;28;20044;-67
2022/08/18 02:59:56;;;;;;;27.25;15.27;;;18.10;99.90;;;;;;5095076;28;20046;-67
2022/08/18 03:02:22;;;;;;;25.95;15.65;;;18.10;99.90;;;;;;5113047;28;20403;-67
2022/08/18 03:04:50;;;;;;;33.70;16.55;;;18.10;99.90;;;;;;5112904;28;20065;-67
2022/08/18 03:07:16;;;;;;;35.10;17.13;;;18.10;99.90;;;;;;5112933;28;20035;-67
2022/08/18 03:09:42;;;;;;;28.30;16.05;;;18.10;99.90;;;;;;5092338;28;20067;-66
2022/08/18 03:12:09;;;;;;;29.15;15.15;;;18.10;99.90;;;;;;5113124;28;20040;-67
2022/08/18 03:14:36;;;;;;;29.98;17.30;;;18.10;99.90;;;;;;5094833;28;20117;-67
2022/08/18 03:17:05;;;;;;;32.30;17.90;;;18.10;99.90;;;;;;5077785;28;20039;-67
2022/08/18 03:19:31;;;;;;;29.43;17.60;;;18.10;99.90;;;;;;5112828;28;20070;-67
2022/08/18 03:21:58;;;;;;;29.40;16.92;;;18.10;99.90;;;;;;5077705;28;20479;-67
2022/08/18 03:24:25;;;;;;;25.95;16.70;;;18.20;99.90;;;;;;5094922;28;20136;-67
2022/08/18 03:26:52;;;;;;;29.58;16.92;;;18.20;99.90;;;;;;5094926;28;20439;-67
2022/08/18 03:29:19;;;;;;;34.92;18.63;;;18.20;99.90;;;;;;5112773;28;20051;-67
2022/08/18 03:31:47;;;;;;;23.88;15.55;;;18.20;99.90;;;;;;5094685;28;20040;-68
2022/08/18 03:34:13;;;;;;;44.75;21.50;;;18.20;99.90;;;;;;5094699;28;20126;-67
2022/08/18 03:36:40;;;;;;;31.27;17.05;;;18.20;99.90;;;;;;5094508;28;20044;-67
2022/08/18 03:39:11;;;;;;;34.53;18.88;;;18.20;99.90;;;;;;5092188;28;20052;-67
2022/08/18 03:41:42;;;;;;;34.35;21.20;;;18.20;99.90;;;;;;5112589;28;20181;-67
2022/08/18 03:44:09;;;;;;;30.17;19.40;;;18.20;99.90;;;;;;5112734;28;20036;-67
2022/08/18 03:46:35;;;;;;;31.90;21.15;;;18.20;99.90;;;;;;5077814;28;20032;-67
2022/08/18 03:49:01;;;;;;;26.70;16.67;;;18.20;99.90;;;;;;5112655;28;20482;-67
2022/08/18 03:51:30;;;;;;;24.17;16.52;;;18.20;99.90;;;;;;5096370;28;20058;-67
2022/08/18 03:53:59;;;;;;;37.95;21.00;;;18.20;99.90;;;;;;5097916;28;20043;-67
2022/08/18 03:56:27;;;;;;;25.35;16.63;;;18.20;99.90;;;;;;5097896;28;20043;-67
2022/08/18 03:59:00;;;;;;;28.63;20.58;;;18.20;99.90;;;;;;5116133;28;20040;-67
2022/08/18 04:01:29;;;;;;;29.83;19.45;;;18.20;99.90;;;;;;5097949;28;20032;-67
2022/08/18 04:03:57;;;;;;;32.63;19.70;;;18.20;99.90;;;;;;5097709;28;20040;-67
2022/08/18 04:06:26;;;;;;;30.15;20.65;;;18.20;99.90;;;;;;5097663;28;20043;-67
2022/08/18 04:08:55;;;;;;;30.83;19.90;;;18.20;99.90;;;;;;5078805;28;20457;-67
2022/08/18 04:11:22;;;;;;;38.97;24.67;;;18.20;99.90;;;;;;5097451;28;20083;-67
2022/08/18 04:13:48;;;;;;;33.50;22.45;;;18.20;99.90;;;;;;5080642;28;20040;-67
2022/08/18 04:16:14;;;;;;;34.28;23.98;;;18.20;99.90;;;;;;5097876;28;20384;-67
2022/08/18 04:18:40;;;;;;;32.65;23.55;;;18.20;99.90;;;;;;5097409;28;20051;-67
2022/08/18 04:21:09;;;;;;;38.35;25.30;;;18.20;99.90;;;;;;5080880;28;20032;-67
2022/08/18 04:23:36;;;;;;;31.10;21.20;;;18.20;99.90;;;;;;5097350;28;20039;-67
2022/08/18 04:26:05;;;;;;;35.40;22.63;;;18.20;99.90;;;;;;5115549;28;20039;-67
2022/08/18 04:28:31;;;;;;;29.02;20.75;;;18.10;99.90;;;;;;5115508;28;20106;-67
2022/08/18 04:30:58;;;;;;;25.25;19.30;;;18.10;99.90;;;;;;5080520;28;20551;-67
2022/08/18 04:33:27;;;;;;;45.60;25.83;;;18.10;99.90;;;;;;5115639;28;20075;-67
2022/08/18 04:35:54;;;;;;;57.45;29.63;;;18.10;99.90;;;;;;5097184;28;20511;-67
2022/08/18 04:38:21;;;;;;;31.73;23.42;;;18.00;99.90;;;;;;5097351;28;20050;-67
2022/08/18 04:40:47;;;;;;;28.52;21.95;;;18.00;99.90;;;;;;5112910;28;20043;-67
2022/08/18 04:43:14;;;;;;;28.92;21.38;;;18.00;99.90;;;;;;5115061;28;20040;-67
2022/08/18 04:45:46;;;;;;;42.40;25.33;;;18.00;99.90;;;;;;5096898;28;20122;-67
2022/08/18 04:48:14;;;;;;;42.88;25.23;;;18.00;99.90;;;;;;5096925;28;20043;-67
2022/08/18 04:50:41;;;;;;;50.83;29.10;;;18.00;99.90;;;;;;5097114;28;20063;-67
2022/08/18 04:55:54;;;;;;;32.58;22.73;;;18.00;99.90;;;;;;5096917;28;20371;-67
2022/08/18 04:58:22;;;;;;;36.70;25.92;;;18.00;99.90;;;;;;5079873;28;20043;-67
2022/08/18 05:00:57;;;;;;;32.83;25.42;;;18.00;99.90;;;;;;5079925;28;20122;-67
2022/08/18 05:03:25;;;;;;;37.83;25.70;;;18.00;99.90;;;;;;5114104;28;20040;-67
2022/08/18 05:05:53;;;;;;;35.25;24.08;;;18.00;99.90;;;;;;5114805;28;20372;-67
2022/08/18 05:08:21;;;;;;;32.35;24.00;;;18.00;99.90;;;;;;5079688;28;20042;-67
2022/08/18 05:10:47;;;;;;;37.03;23.00;;;18.10;99.90;;;;;;5077078;28;20051;-67
2022/08/18 05:13:16;;;;;;;42.30;26.98;;;18.10;99.90;;;;;;5114602;28;20086;-67
2022/08/18 05:15:42;;;;;;;40.27;24.47;;;18.10;99.90;;;;;;5114729;28;20039;-67
2022/08/18 05:18:09;;;;;;;41.17;26.13;;;18.10;99.90;;;;;;5096427;28;20071;-67
2022/08/18 05:20:36;;;;;;;45.38;27.92;;;18.20;99.90;;;;;;5096400;28;20066;-67
2022/08/18 05:23:02;;;;;;;32.83;22.63;;;18.20;99.90;;;;;;5096203;28;20078;-67
2022/08/18 05:25:28;;;;;;;30.70;23.38;;;18.20;99.90;;;;;;5096440;28;20071;-67
2022/08/18 05:27:54;;;;;;;35.80;25.25;;;18.20;99.90;;;;;;5096127;28;20475;-67
2022/08/18 05:30:20;;;;;;;33.15;22.17;;;18.30;99.90;;;;;;5096271;28;20078;-67
2022/08/18 05:32:46;;;;;;;32.63;21.70;;;18.30;99.90;;;;;;5096015;28;20043;-67
2022/08/18 05:35:24;;;;;;;37.88;23.17;;;18.30;99.90;;;;;;5096182;28;20039;-67
2022/08/18 05:37:56;;;;;;;31.65;21.45;;;18.40;99.90;;;;;;5095878;28;20044;-67
2022/08/18 05:40:25;;;;;;;31.13;21.70;;;18.40;99.90;;;;;;5112023;28;20043;-67
2022/08/18 05:42:53;;;;;;;34.17;20.33;;;18.40;99.90;;;;;;5095794;28;20079;-67
2022/08/18 05:45:19;;;;;;;37.03;23.63;;;18.50;99.90;;;;;;5095745;28;20075;-67
2022/08/18 05:47:45;;;;;;;30.38;22.45;;;18.50;99.90;;;;;;5113935;28;20078;-67
2022/08/18 05:50:16;;;;;;;24.80;20.27;;;18.50;99.90;;;;;;5096113;28;20047;-67
2022/08/18 05:52:51;;;;;;;27.58;19.92;;;18.50;99.90;;;;;;5078791;28;20097;-67
2022/08/18 05:58:30;;;;;;;31.27;20.23;;;18.60;99.90;;;;;;5095548;28;20495;-67
2022/08/18 06:01:07;;;;;;;34.85;23.38;;;18.60;99.90;;;;;;5095597;28;20129;-67
2022/08/18 06:03:47;;;;;;;29.33;21.50;;;18.70;99.90;;;;;;5095458;28;20055;-67
2022/08/18 06:06:19;;;;;;;25.33;19.92;;;18.70;99.90;;;;;;5113693;28;20503;-67
2022/08/18 06:08:54;;;;;;;28.20;19.15;;;18.80;99.90;;;;;;5093953;28;20039;-67
2022/08/18 06:11:20;;;;;;;21.40;17.58;;;18.90;99.90;;;;;;5095255;28;20044;-67
2022/08/18 06:13:46;;;;;;;22.00;16.73;;;19.10;99.90;;;;;;5095289;28;20558;-67
2022/08/18 06:16:27;;;;;;;19.70;15.75;;;19.20;99.90;;;;;;5113174;28;20403;-67
2022/08/18 06:19:02;;;;;;;16.98;13.60;;;19.40;99.90;;;;;;5095267;28;20049;-67
2022/08/18 06:21:35;;;;;;;19.35;13.00;;;19.50;99.90;;;;;;5078435;28;20226;-67
2022/08/18 06:24:23;;;;;;;18.98;14.40;;;19.60;99.90;;;;;;5113574;28;20039;-67
2022/08/18 06:26:56;;;;;;;15.48;11.52;;;19.90;99.90;;;;;;5091909;28;20051;-68
2022/08/18 06:29:40;;;;;;;12.43;10.07;;;20.10;99.90;;;;;;5065239;28;20036;-68
2022/08/18 06:32:27;;;;;;;11.15;8.65;;;20.30;99.90;;;;;;5093026;28;20040;-68
2022/08/18 06:35:10;;;;;;;14.55;8.23;;;20.50;99.90;;;;;;5058042;28;20487;-68
2022/08/18 06:40:33;;;;;;;10.15;6.38;;;20.90;99.90;;;;;;5090385;28;20044;-68
2022/08/18 06:42:59;;;;;;;9.70;5.97;;;21.10;99.90;;;;;;5057988;28;20120;-68
2022/08/18 06:45:32;;;;;;;8.93;6.03;;;21.20;99.90;;;;;;5092726;28;20519;-68
2022/08/18 06:48:29;;;;;;;10.48;6.60;;;21.20;99.90;;;;;;5074687;28;20511;-68
2022/08/18 06:51:00;;;;;;;12.20;6.90;;;21.20;99.90;;;;;;5092270;28;20115;-68
2022/08/18 06:53:49;;;;;;;10.13;6.07;;;21.00;99.90;;;;;;5074572;28;20097;-68
2022/08/18 06:56:23;;;;;;;10.38;6.50;;;20.90;99.90;;;;;;5092638;28;20039;-68
2022/08/18 06:58:53;;;;;;;12.13;6.00;;;20.70;99.90;;;;;;5092533;28;20040;-68
2022/08/18 07:01:21;;;;;;;7.45;6.47;;;20.50;99.90;;;;;;5074398;28;20500;-67
2022/08/18 07:03:55;;;;;;;9.48;5.80;;;20.40;99.90;;;;;;5074319;28;20040;-68
2022/08/18 07:06:21;;;;;;;10.70;6.85;;;20.30;99.90;;;;;;5074281;28;20492;-68
2022/08/18 07:08:49;;;;;;;9.32;6.35;;;20.30;99.90;;;;;;5073027;28;20043;-68
2022/08/18 07:11:23;;;;;;;10.27;6.72;;;20.30;99.90;;;;;;5073983;28;20056;-68
2022/08/18 07:14:14;;;;;;;13.18;5.97;;;20.30;99.90;;;;;;5078020;28;20062;-68
2022/08/18 07:16:39;;;;;;;11.98;6.65;;;20.20;99.90;;;;;;5112864;28;20426;-68
2022/08/18 07:19:20;;;;;;;12.23;6.65;;;20.20;99.90;;;;;;5111648;28;20099;-68
2022/08/18 07:22:08;;;;;;;14.07;7.10;;;20.20;99.90;;;;;;5112620;28;20039;-69
2022/08/18 07:24:42;;;;;;;16.63;6.43;;;20.20;99.90;;;;;;5095538;28;20574;-68
2022/08/18 07:27:17;;;;;;;14.20;6.75;;;20.20;99.90;;;;;;5114351;28;20035;-68
2022/08/18 07:30:05;;;;;;;14.18;6.47;;;20.10;99.90;;;;;;5115376;28;20043;-68
2022/08/18 07:32:47;;;;;;;7.97;6.07;;;20.00;99.90;;;;;;5115558;28;20138;-68
2022/08/18 07:35:18;;;;;;;9.23;5.75;;;20.00;99.90;;;;;;5115221;28;20126;-68
2022/08/18 07:37:53;;;;;;;20.25;6.50;;;20.10;99.90;;;;;;5116491;28;20043;-67
2022/08/18 07:40:21;;;;;;;11.77;5.75;;;20.10;99.90;;;;;;5114089;28;20054;-68
2022/08/18 07:43:05;;;;;;;9.55;5.60;;;20.20;99.90;;;;;;5115168;28;20040;-68
2022/08/18 07:45:39;;;;;;;10.10;4.95;;;20.40;99.90;;;;;;5115121;28;20039;-69
2022/08/18 07:48:24;;;;;;;6.82;4.30;;;20.40;99.90;;;;;;5115034;28;20043;-68
2022/08/18 07:51:09;;;;;;;5.35;4.00;;;20.30;99.90;;;;;;5114959;28;20042;-68
2022/08/18 07:53:55;;;;;;;5.07;4.10;;;20.10;99.90;;;;;;5115301;28;20472;-68
2022/08/18 07:56:32;;;;;;;12.13;4.55;;;20.00;99.90;;;;;;5115003;28;20043;-69
2022/08/18 07:59:21;;;;;;;7.07;3.47;;;19.90;99.90;;;;;;5114947;28;20040;-68
2022/08/18 08:01:56;;;;;;;5.00;3.00;;;19.80;99.90;;;;;;5056967;28;20085;-68
2022/08/18 08:04:38;;;;;;;5.03;3.15;;;19.80;99.90;;;;;;5098142;28;20035;-67
2022/08/18 08:07:11;;;;;;;4.35;2.42;;;19.90;99.90;;;;;;5114789;28;20040;-67
2022/08/18 08:09:56;;;;;;;5.95;2.28;;;19.90;99.90;;;;;;5113608;28;20545;-67
2022/08/18 08:12:55;;;;;;;7.40;2.17;;;20.10;99.90;;;;;;5114665;28;20062;-68
2022/08/18 08:15:34;;;;;;;4.95;1.83;;;20.20;99.90;;;;;;5096124;28;20060;-68
2022/08/18 08:18:12;;;;;;;3.70;1.83;;;20.20;99.90;;;;;;5116998;27;20046;-68
2022/08/18 08:20:47;;;;;;;3.72;2.15;;;20.20;99.90;;;;;;5115847;28;20043;-68
2022/08/18 08:23:46;;;;;;;5.18;1.92;;;20.20;99.90;;;;;;5115573;28;20383;-68
2022/08/18 08:26:21;;;;;;;5.80;2.20;;;20.20;99.90;;;;;;5114402;28;20054;-68
2022/08/18 08:29:06;;;;;;;3.28;2.17;;;20.20;99.90;;;;;;5114429;28;20036;-68
2022/08/18 08:31:33;;;;;;;4.30;2.15;;;20.20;99.90;;;;;;5097088;28;20546;-68
2022/08/18 08:34:23;;;;;;;4.22;1.80;;;20.20;99.90;;;;;;5114197;28;20051;-68
2022/08/18 08:36:58;;;;;;;6.00;2.22;;;20.40;99.90;;;;;;5113686;28;20407;-67
2022/08/18 08:39:38;;;;;;;3.50;2.25;;;20.50;99.90;;;;;;5111489;28;20553;-67
2022/08/18 08:42:46;;;;;;;5.25;2.83;;;20.60;99.90;;;;;;5113942;28;20089;-67
2022/08/18 08:45:14;;;;;;;3.60;1.65;;;20.70;99.90;;;;;;5032172;28;20187;-67
2022/08/18 08:48:07;;;;;;;5.07;1.73;;;20.90;99.90;;;;;;5094913;28;20621;-67
2022/08/18 08:50:40;;;;;;;4.30;1.67;;;21.20;99.90;;;;;;5114007;28;20428;-67
2022/08/18 08:53:12;;;;;;;4.18;1.95;;;21.80;99.90;;;;;;5096781;28;20050;-68
2022/08/18 08:55:45;;;;;;;2.80;1.73;;;22.60;99.90;;;;;;5113623;28;20130;-70
2022/08/18 08:58:39;;;;;;;3.22;1.67;;;23.10;99.90;;;;;;5114090;28;20376;-69
2022/08/18 09:01:09;;;;;;;2.88;1.10;;;23.10;99.90;;;;;;5097047;28;20070;-68
2022/08/18 09:03:38;;;;;;;3.97;1.27;;;23.10;99.90;;;;;;5114734;28;20049;-68
2022/08/18 09:06:16;;;;;;;2.38;1.45;;;23.00;99.90;;;;;;5113552;28;20495;-68
2022/08/18 09:08:48;;;;;;;4.30;1.23;;;23.00;99.90;;;;;;5114489;28;20036;-69
2022/08/18 09:11:41;;;;;;;3.33;1.20;;;23.00;99.90;;;;;;5095582;28;20051;-69
2022/08/18 09:14:26;;;;;;;2.30;0.90;;;23.40;99.90;;;;;;5113679;28;20035;-69
2022/08/18 09:17:22;;;;;;;1.52;1.00;;;23.60;99.90;;;;;;5113694;28;20387;-68
2022/08/18 09:20:15;;;;;;;1.92;0.93;;;23.70;99.90;;;;;;5063309;28;20051;-69
2022/08/18 09:22:51;;;;;;;3.45;1.20;;;23.70;99.90;;;;;;5114302;28;20054;-68
2022/08/18 09:25:38;;;;;;;6.70;1.40;;;23.70;99.90;;;;;;5114804;28;20036;-68
2022/08/18 09:28:16;;;;;;;2.67;1.13;;;23.80;99.90;;;;;;5114427;27;20071;-68
2022/08/18 09:30:47;;;;;;;2.33;1.00;;;23.80;99.90;;;;;;5096391;28;20130;-67
2022/08/18 09:33:18;;;;;;;4.57;1.02;;;23.70;99.90;;;;;;5114608;28;20035;-67
2022/08/18 09:35:58;;;;;;;2.75;1.20;;;23.50;99.90;;;;;;5096313;28;20036;-67
2022/08/18 09:41:32;;;;;;;3.45;1.05;;;23.70;99.90;;;;;;5112173;28;20511;-68
2022/08/18 09:44:09;;;;;;;3.30;1.10;;;23.80;99.90;;;;;;5092740;28;20043;-67
2022/08/18 09:46:46;;;;;;;2.45;1.17;;;23.80;99.90;;;;;;5112539;28;20039;-67
2022/08/18 09:49:21;;;;;;;3.83;1.40;;;23.60;99.90;;;;;;5113447;28;20491;-67
2022/08/18 09:51:49;;;;;;;3.70;1.50;;;23.40;99.90;;;;;;5113540;28;20100;-67
2022/08/18 09:54:23;;;;;;;4.95;1.67;;;23.20;99.90;;;;;;5095346;28;20142;-67
2022/08/18 09:57:06;;;;;;;4.72;1.50;;;23.00;99.90;;;;;;5113856;28;20075;-67
2022/08/18 09:59:31;;;;;;;3.50;1.75;;;23.00;99.90;;;;;;5109217;28;20059;-67
2022/08/18 10:02:09;;;;;;;2.88;1.45;;;23.10;99.90;;;;;;5112239;28;20044;-67
2022/08/18 10:04:47;;;;;;;4.97;1.40;;;23.10;99.90;;;;;;5113770;28;20160;-66
2022/08/18 10:07:32;;;;;;;5.28;1.58;;;23.20;99.90;;;;;;5113797;28;20077;-67
2022/08/18 10:10:30;;;;;;;5.40;1.90;;;23.20;99.90;;;;;;5109937;28;20147;-67
2022/08/18 10:13:18;;;;;;;3.65;1.65;;;23.00;99.90;;;;;;5113192;28;20101;-67
2022/08/18 10:16:24;;;;;;;3.78;1.42;;;22.90;99.90;;;;;;5112472;28;20058;-67
2022/08/18 10:19:12;;;;;;;4.65;1.60;;;22.80;99.90;;;;;;5089901;28;20048;-67
2022/08/18 10:21:57;;;;;;;4.78;2.00;;;22.70;99.90;;;;;;5093214;28;20067;-67
2022/08/18 10:24:43;;;;;;;3.35;1.80;;;22.50;99.90;;;;;;5091768;28;19920;-67
2022/08/18 10:27:29;;;;;;;4.20;1.70;;;22.40;99.90;;;;;;5074846;28;20043;-67
2022/08/18 10:29:57;;;;;;;4.10;1.55;;;22.30;99.90;;;;;;5074847;28;20464;-67
2022/08/18 10:32:35;;;;;;;3.38;1.50;;;22.80;99.90;;;;;;5091382;28;20044;-67
2022/08/18 10:35:01;;;;;;;3.65;1.48;;;23.20;99.90;;;;;;5092988;28;20106;-67
2022/08/18 10:37:43;;;;;;;4.55;1.70;;;23.30;99.90;;;;;;5092772;28;20105;-67
2022/08/18 10:40:08;;;;;;;3.92;1.35;;;23.40;99.90;;;;;;5089400;28;20040;-67
2022/08/18 10:42:49;;;;;;;2.42;1.40;;;23.30;99.90;;;;;;5074580;28;20044;-67
2022/08/18 10:45:35;;;;;;;4.65;1.50;;;23.30;99.90;;;;;;5091501;28;20040;-66
2022/08/18 10:48:04;;;;;;;3.38;1.63;;;23.40;99.90;;;;;;5091381;28;20079;-66
2022/08/18 10:50:57;;;;;;;3.87;1.60;;;23.60;99.90;;;;;;5091309;28;20039;-66
2022/08/18 10:53:44;;;;;;;4.43;1.48;;;24.00;99.90;;;;;;5066998;28;20047;-67
2022/08/18 10:56:51;;;;;;;3.67;1.23;;;24.40;99.90;;;;;;5111724;28;20361;-66
2022/08/18 10:59:40;;;;;;;4.97;1.85;;;24.60;99.90;;;;;;5111269;28;20126;-66
2022/08/18 11:02:33;;;;;;;2.50;1.50;;;24.70;99.90;;;;;;5097993;28;20112;-66
2022/08/18 11:05:05;;;;;;;3.13;1.17;;;24.80;99.90;;;;;;5116950;28;20522;-67
2022/08/18 11:07:34;;;;;;;2.10;1.10;;;24.80;99.90;;;;;;5115736;28;20070;-67
2022/08/18 11:10:13;;;;;;;2.33;1.10;;;24.80;99.90;;;;;;5114757;28;20369;-66
2022/08/18 11:12:45;;;;;;;2.78;1.15;;;24.80;99.90;;;;;;5115727;28;20122;-67
2022/08/18 11:15:24;;;;;;;1.70;1.13;;;25.10;99.90;;;;;;5098562;28;20039;-67
2022/08/18 11:18:22;;;;;;;1.95;0.95;;;25.60;99.90;;;;;;5117022;28;20035;-67
2022/08/18 11:20:50;;;;;;;3.30;1.17;;;25.90;99.90;;;;;;5081492;28;20130;-67
2022/08/18 11:23:16;;;;;;;1.80;1.00;;;26.20;99.90;;;;;;5098213;28;20050;-67
2022/08/18 11:25:43;;;;;;;3.22;1.10;;;26.60;99.90;;;;;;5098586;28;20043;-67
2022/08/18 11:28:22;;;;;;;2.80;0.90;;;26.90;99.90;;;;;;5116633;28;20039;-67
2022/08/18 11:30:53;;;;;;;2.90;1.05;;;27.00;99.90;;;;;;5116849;28;20036;-67
2022/08/18 11:33:21;;;;;;;1.85;0.90;;;26.90;99.90;;;;;;5098505;28;20130;-66
2022/08/18 11:35:58;;;;;;;2.08;1.10;;;26.60;99.90;;;;;;5098206;28;20116;-66
2022/08/18 11:38:26;;;;;;;2.75;1.20;;;26.50;99.90;;;;;;5116877;28;20419;-66
2022/08/18 11:41:15;;;;;;;1.70;1.08;;;26.70;99.90;;;;;;5114243;28;20044;-66
2022/08/18 11:43:42;;;;;;;2.20;1.25;;;26.60;99.90;;;;;;5098179;28;20050;-66
2022/08/18 11:46:37;;;;;;;3.40;1.23;;;26.40;99.90;;;;;;5098223;28;20101;-66
2022/08/18 11:49:44;;;;;;;3.65;1.25;;;26.10;99.90;;;;;;5116305;28;20590;-67
2022/08/18 11:52:49;;;;;;;7.40;1.70;;;25.50;99.90;;;;;;5016600;28;20516;-66
2022/08/18 11:55:30;;;;;;;2.55;1.60;;;24.90;99.90;;;;;;5058037;28;20138;-66
2022/08/18 11:57:57;;;;;;;3.38;1.40;;;24.50;99.90;;;;;;5098235;28;20400;-67
2022/08/18 12:00:52;;;;;;;3.03;1.40;;;24.40;99.90;;;;;;5098174;28;20457;-66
2022/08/18 12:03:29;;;;;;;3.25;1.40;;;24.40;99.90;;;;;;5115145;28;20035;-66
2022/08/18 12:06:10;;;;;;;2.05;1.30;;;24.50;99.90;;;;;;5115324;28;20123;-66
2022/08/18 12:08:47;;;;;;;2.67;1.42;;;24.50;99.90;;;;;;5096800;28;20104;-66
2022/08/18 12:11:19;;;;;;;2.13;1.50;;;24.40;99.90;;;;;;5113283;28;20043;-66
2022/08/18 12:13:55;;;;;;;1.60;1.10;;;24.30;99.90;;;;;;5111793;28;20439;-66
2022/08/18 12:16:35;;;;;;;2.33;1.30;;;24.30;99.90;;;;;;5094402;28;20166;-66
2022/08/18 12:19:02;;;;;;;3.67;1.55;;;24.10;99.90;;;;;;5094597;28;20044;-66
2022/08/18 12:21:28;;;;;;;3.40;1.08;;;24.00;99.90;;;;;;5076464;28;20169;-65
2022/08/18 12:23:54;;;;;;;3.38;1.40;;;24.00;99.90;;;;;;5076145;28;20043;-65
2022/08/18 12:26:20;;;;;;;2.38;1.20;;;24.00;99.90;;;;;;5094295;28;20187;-66
2022/08/18 12:28:46;;;;;;;2.15;1.30;;;24.20;99.90;;;;;;5075952;28;20086;-66
2022/08/18 12:31:11;;;;;;;3.05;1.67;;;24.30;99.90;;;;;;5059365;28;20036;-66
2022/08/18 12:33:37;;;;;;;4.85;1.80;;;24.30;99.90;;;;;;5094346;28;20036;-66
2022/08/18 12:36:04;;;;;;;2.53;1.27;;;24.30;99.90;;;;;;5094152;28;20519;-66
2022/08/18 12:38:32;;;;;;;2.70;1.20;;;24.30;99.90;;;;;;5075747;28;20080;-66
2022/08/18 12:40:58;;;;;;;3.55;1.40;;;24.40;99.90;;;;;;5091566;28;20050;-66
2022/08/18 12:43:24;;;;;;;3.25;1.33;;;24.60;99.90;;;;;;5094114;28;20054;-66
2022/08/18 12:45:51;;;;;;;2.00;1.40;;;24.80;99.90;;;;;;5075712;28;20035;-66
2022/08/18 12:48:17;;;;;;;2.45;1.40;;;24.90;99.90;;;;;;5094034;28;20040;-66
2022/08/18 12:50:43;;;;;;;2.30;1.38;;;24.90;99.90;;;;;;5075787;28;20071;-66
2022/08/18 12:53:11;;;;;;;2.80;1.35;;;24.80;99.90;;;;;;5093789;28;20491;-66
2022/08/18 12:55:42;;;;;;;3.38;1.42;;;24.80;99.90;;;;;;5075642;28;20040;-66
2022/08/18 12:58:08;;;;;;;4.20;1.30;;;24.70;99.90;;;;;;5093783;28;20445;-66
2022/08/18 13:00:34;;;;;;;2.28;1.25;;;24.60;99.90;;;;;;5075565;28;20047;-66
2022/08/18 13:03:00;;;;;;;2.78;1.42;;;24.60;99.90;;;;;;5075422;28;20446;-65
2022/08/18 13:05:27;;;;;;;2.10;1.17;;;24.70;99.90;;;;;;5075494;28;20048;-65
2022/08/18 13:07:56;;;;;;;2.60;1.50;;;24.80;99.90;;;;;;5058938;28;20476;-66
2022/08/18 13:10:22;;;;;;;3.70;1.80;;;25.00;99.90;;;;;;5091019;28;20135;-66
2022/08/18 13:12:48;;;;;;;8.82;1.50;;;25.10;99.90;;;;;;5075608;28;20140;-66
2022/08/18 13:15:14;;;;;;;2.65;1.35;;;24.90;99.90;;;;;;5075225;28;20036;-66
2022/08/18 13:17:40;;;;;;;4.43;1.88;;;24.80;99.90;;;;;;5075224;28;20188;-66
2022/08/18 13:20:13;;;;;;;2.90;1.58;;;24.70;99.90;;;;;;5093419;28;20131;-66
2022/08/18 13:22:40;;;;;;;2.42;1.48;;;24.50;99.90;;;;;;5093113;28;20052;-66
2022/08/18 13:25:08;;;;;;;3.70;1.85;;;24.30;99.90;;;;;;5074679;28;20036;-65